Time;durP1;ratioP1;P1;durP2;ratioP2;P2;SDS_P1;SDS_P2;PMS_P1;PMS_P2;Temp;Humidity;BMP_temperature;BMP_pressure;BME280_temperature;BME280_humidity;BME280_pressure;Samples;Min_cycle;Max_cycle;Signal;HPM_P1;HPM_P2
2023/07/21 00:01:53;;;;;;;19.33;3.80;;;;;;;;;;6172625;23;20072;-60
2023/07/21 00:04:27;;;;;;;26.23;4.40;;;;;;;;;;6176087;23;20025;-59
2023/07/21 00:06:54;;;;;;;21.13;3.90;;;;;;;;;;6174865;23;20017;-60
2023/07/21 00:09:22;;;;;;;23.70;4.95;;;;;;;;;;6179163;23;20091;-60
2023/07/21 00:11:56;;;;;;;23.48;4.85;;;;;;;;;;6176163;23;20029;-59
2023/07/21 00:14:24;;;;;;;;;;;;;;;;;;6178677;23;20080;-52
2023/07/21 00:16:53;;;;;;;27.33;3.97;;;;;;;;;;6176098;23;19916;-54
2023/07/21 00:19:34;;;;;;;24.60;4.85;;;;;;;;;;6178468;23;20029;-51
2023/07/21 00:22:07;;;;;;;27.85;4.32;;;;;;;;;;6176546;23;20032;-49
2023/07/21 00:24:41;;;;;;;22.33;4.93;;;;;;;;;;6178960;23;20024;-46
2023/07/21 00:27:09;;;;;;;27.58;5.07;;;;;;;;;;6176676;23;20056;-51
2023/07/21 00:29:36;;;;;;;22.58;4.85;;;;;;;;;;6177611;23;20087;-49
2023/07/21 00:32:11;;;;;;;26.13;4.75;;;;;;;;;;6177673;23;20025;-49
2023/07/21 00:34:38;;;;;;;29.67;4.57;;;;;;;;;;6177865;23;20021;-49
2023/07/21 00:37:14;;;;;;;23.85;4.28;;;;;;;;;;6176685;23;20029;-50
2023/07/21 00:39:42;;;;;;;30.10;4.97;;;;;;;;;;6176541;23;20025;-49
2023/07/21 00:42:09;;;;;;;;;;;;;;;;;;6176807;23;20032;-59
2023/07/21 00:44:44;;;;;;;23.75;3.92;;;;;;;;;;6176502;23;19986;-58
2023/07/21 00:47:11;;;;;;;22.17;4.38;;;;;;;;;;6174418;23;20025;-58
2023/07/21 00:49:38;;;;;;;22.92;4.45;;;;;;;;;;6175812;23;20060;-58
2023/07/21 00:52:19;;;;;;;36.90;5.03;;;;;;;;;;6176794;23;20543;-59
2023/07/21 00:54:47;;;;;;;23.08;4.03;;;;;;;;;;6176177;23;20025;-49
2023/07/21 00:57:22;;;;;;;20.25;4.55;;;;;;;;;;6176117;23;20083;-49
2023/07/21 00:59:49;;;;;;;23.15;4.53;;;;;;;;;;6174998;23;20032;-52
2023/07/21 01:02:17;;;;;;;21.80;4.82;;;;;;;;;;6175892;23;20024;-54
2023/07/21 01:04:59;;;;;;;15.70;3.60;;;;;;;;;;6176839;23;20024;-53
2023/07/21 01:07:27;;;;;;;24.73;4.53;;;;;;;;;;6174917;23;20035;-52
2023/07/21 01:10:02;;;;;;;22.38;4.43;;;;;;;;;;6178400;23;20048;-59
2023/07/21 01:12:30;;;;;;;25.38;4.07;;;;;;;;;;6176580;23;20035;-59
2023/07/21 01:14:57;;;;;;;;;;;;;;;;;;6176851;23;20060;-59
2023/07/21 01:17:31;;;;;;;16.65;3.60;;;;;;;;;;6176285;23;19931;-59
2023/07/21 01:20:05;;;;;;;25.10;3.88;;;;;;;;;;6176950;23;20023;-48
2023/07/21 01:22:50;;;;;;;24.55;3.60;;;;;;;;;;6176622;23;20033;-51
2023/07/21 01:25:18;;;;;;;19.77;4.05;;;;;;;;;;6178118;23;20108;-62
2023/07/21 01:27:52;;;;;;;20.95;4.55;;;;;;;;;;6175597;23;20088;-62
2023/07/21 01:30:22;;;;;;;23.98;3.92;;;;;;;;;;6176202;23;20060;-63
2023/07/21 01:32:49;;;;;;;27.55;4.68;;;;;;;;;;6176617;23;20440;-62
2023/07/21 01:35:23;;;;;;;19.88;3.97;;;;;;;;;;6178304;23;20045;-63
2023/07/21 01:37:51;;;;;;;29.85;4.50;;;;;;;;;;6174611;23;20027;-62
2023/07/21 01:40:26;;;;;;;29.83;4.35;;;;;;;;;;6176855;23;20477;-51
2023/07/21 01:42:53;;;;;;;20.83;4.22;;;;;;;;;;6173700;23;20496;-51
2023/07/21 01:45:20;;;;;;;19.98;4.00;;;;;;;;;;6177611;23;20075;-51
2023/07/21 01:47:56;;;;;;;27.13;4.00;;;;;;;;;;6175815;23;20056;-53
2023/07/21 01:50:24;;;;;;;24.92;4.22;;;;;;;;;;6175407;23;20500;-47
2023/07/21 01:52:51;;;;;;;;;;;;;;;;;;6175328;23;20439;-59
2023/07/21 01:55:33;;;;;;;22.85;3.83;;;;;;;;;;6175957;23;19920;-59
2023/07/21 01:58:07;;;;;;;22.05;3.90;;;;;;;;;;6175339;23;20099;-59
2023/07/21 02:00:42;;;;;;;25.13;4.13;;;;;;;;;;6175055;23;20025;-59
2023/07/21 02:03:18;;;;;;;19.90;4.18;;;;;;;;;;6174902;23;20031;-60
2023/07/21 02:05:52;;;;;;;20.17;4.30;;;;;;;;;;6175761;23;20099;-59
2023/07/21 02:08:21;;;;;;;19.23;3.97;;;;;;;;;;6147837;23;20029;-57
2023/07/21 02:10:48;;;;;;;25.52;4.15;;;;;;;;;;6175644;23;20025;-57
2023/07/21 02:13:22;;;;;;;21.90;4.25;;;;;;;;;;6174022;23;20029;-57
2023/07/21 02:15:49;;;;;;;12.85;3.75;;;;;;;;;;6176871;23;20025;-57
2023/07/21 02:18:16;;;;;;;25.48;4.28;;;;;;;;;;6175237;23;20031;-48
2023/07/21 02:21:07;;;;;;;20.13;4.00;;;;;;;;;;6173744;23;20032;-55
2023/07/21 02:23:41;;;;;;;29.70;3.90;;;;;;;;;;6175087;23;20018;-57
2023/07/21 02:26:15;;;;;;;19.65;3.90;;;;;;;;;;6176568;23;20095;-56
2023/07/21 02:28:42;;;;;;;15.73;3.92;;;;;;;;;;6174013;23;20080;-57
2023/07/21 02:31:10;;;;;;;15.25;3.65;;;;;;;;;;6176780;23;20024;-56
2023/07/21 02:33:43;;;;;;;17.45;3.85;;;;;;;;;;6173922;23;20025;-56
2023/07/21 02:36:10;;;;;;;19.20;3.85;;;;;;;;;;6176425;23;20032;-62
2023/07/21 02:38:44;;;;;;;21.55;4.60;;;;;;;;;;6174062;23;20072;-62
2023/07/21 02:41:11;;;;;;;21.15;3.95;;;;;;;;;;6176399;23;20024;-62
2023/07/21 02:43:38;;;;;;;23.40;3.72;;;;;;;;;;6173747;23;20075;-62
2023/07/21 02:46:14;;;;;;;21.73;3.95;;;;;;;;;;6175528;23;20439;-60
2023/07/21 02:48:41;;;;;;;23.15;4.13;;;;;;;;;;6175528;23;20029;-58
2023/07/21 02:51:16;;;;;;;19.13;3.53;;;;;;;;;;6174216;23;20428;-58
2023/07/21 02:53:43;;;;;;;22.08;3.45;;;;;;;;;;6174762;23;20075;-58
2023/07/21 02:56:10;;;;;;;22.20;4.18;;;;;;;;;;6175665;23;20040;-58
2023/07/21 02:58:44;;;;;;;16.38;3.30;;;;;;;;;;6174343;23;20091;-58
2023/07/21 03:01:12;;;;;;;21.52;3.10;;;;;;;;;;6175738;23;20025;-59
2023/07/21 03:03:41;;;;;;;12.23;3.20;;;;;;;;;;6175212;23;20388;-62
2023/07/21 03:06:15;;;;;;;19.23;3.60;;;;;;;;;;6174989;23;20025;-62
2023/07/21 03:08:43;;;;;;;17.23;3.67;;;;;;;;;;6174344;23;20562;-62
2023/07/21 03:11:17;;;;;;;17.52;3.65;;;;;;;;;;6175723;23;20025;-63
2023/07/21 03:13:44;;;;;;;20.33;3.72;;;;;;;;;;6175155;23;20021;-57
2023/07/21 03:16:14;;;;;;;20.10;3.55;;;;;;;;;;6176672;23;20087;-62
2023/07/21 03:18:48;;;;;;;21.73;4.03;;;;;;;;;;6175023;23;20197;-58
2023/07/21 03:21:22;;;;;;;20.85;3.83;;;;;;;;;;6144768;23;20022;-58
2023/07/21 03:23:55;;;;;;;19.20;3.17;;;;;;;;;;6145024;23;20029;-58
2023/07/21 03:26:24;;;;;;;17.75;3.67;;;;;;;;;;6147400;23;20413;-58
2023/07/21 03:28:52;;;;;;;18.60;4.18;;;;;;;;;;6146106;23;20025;-58
2023/07/21 03:31:26;;;;;;;19.23;3.95;;;;;;;;;;6147238;23;20022;-58
2023/07/21 03:33:53;;;;;;;27.10;4.32;;;;;;;;;;6144983;23;20022;-59
2023/07/21 03:36:27;;;;;;;18.92;3.63;;;;;;;;;;6146795;23;20091;-60
2023/07/21 03:38:55;;;;;;;12.48;3.08;;;;;;;;;;6146374;23;20026;-60
2023/07/21 03:41:22;;;;;;;17.45;3.53;;;;;;;;;;6146258;23;20290;-60
2023/07/21 03:43:56;;;;;;;15.35;3.17;;;;;;;;;;6147175;23;20032;-62
2023/07/21 03:46:23;;;;;;;19.88;2.67;;;;;;;;;;6147042;23;20032;-58
2023/07/21 03:48:58;;;;;;;18.60;3.22;;;;;;;;;;6145998;23;20507;-58
2023/07/21 03:51:26;;;;;;;14.30;3.10;;;;;;;;;;6147986;23;20017;-58
2023/07/21 03:53:56;;;;;;;19.88;3.72;;;;;;;;;;6147244;23;20433;-58
2023/07/21 03:56:30;;;;;;;13.35;3.38;;;;;;;;;;6147047;23;20076;-58
2023/07/21 03:58:58;;;;;;;17.30;3.78;;;;;;;;;;6147182;23;20045;-58
2023/07/21 04:01:27;;;;;;;14.18;3.70;;;;;;;;;;6146222;23;20059;-59
2023/07/21 04:04:02;;;;;;;15.70;2.72;;;;;;;;;;6147007;23;20099;-60
2023/07/21 04:06:29;;;;;;;17.63;2.85;;;;;;;;;;6147131;23;20354;-60
2023/07/21 04:08:56;;;;;;;14.85;3.20;;;;;;;;;;6145922;23;20021;-60
2023/07/21 04:11:30;;;;;;;9.88;2.50;;;;;;;;;;6146282;23;20425;-60
2023/07/21 04:13:59;;;;;;;14.23;3.22;;;;;;;;;;6147049;23;20029;-57
2023/07/21 04:16:34;;;;;;;17.42;3.00;;;;;;;;;;6147954;23;20029;-58
2023/07/21 04:19:01;;;;;;;15.55;2.90;;;;;;;;;;6145623;23;20026;-58
2023/07/21 04:21:28;;;;;;;12.07;2.97;;;;;;;;;;6170510;23;20107;-56
2023/07/21 04:24:10;;;;;;;13.95;3.20;;;;;;;;;;6174573;23;20472;-57
2023/07/21 04:26:37;;;;;;;16.33;2.88;;;;;;;;;;6177280;23;20021;-57
2023/07/21 04:29:11;;;;;;;15.30;2.78;;;;;;;;;;6176956;23;20056;-59
2023/07/21 04:31:58;;;;;;;13.80;2.60;;;;;;;;;;6175270;23;20429;-59
2023/07/21 04:34:33;;;;;;;14.23;3.05;;;;;;;;;;6175633;23;20476;-59
2023/07/21 04:37:00;;;;;;;13.32;2.35;;;;;;;;;;6175998;23;20484;-59
2023/07/21 04:39:34;;;;;;;17.38;3.33;;;;;;;;;;6176923;23;20480;-59
2023/07/21 04:42:01;;;;;;;14.20;2.25;;;;;;;;;;6176221;23;20025;-58
2023/07/21 04:44:29;;;;;;;9.70;2.95;;;;;;;;;;6176207;23;20087;-59
2023/07/21 04:47:05;;;;;;;8.60;2.42;;;;;;;;;;6176819;23;20488;-59
2023/07/21 04:49:32;;;;;;;14.48;2.40;;;;;;;;;;6176454;23;20017;-59
2023/07/21 04:52:06;;;;;;;15.50;2.67;;;;;;;;;;6175062;23;20021;-59
2023/07/21 04:54:34;;;;;;;15.02;2.55;;;;;;;;;;6176639;23;20025;-59
2023/07/21 04:57:01;;;;;;;;;;;;;;;;;;6176944;23;20036;-59
2023/07/21 04:59:35;;;;;;;13.13;2.53;;;;;;;;;;6175773;23;19920;-47
2023/07/21 05:02:02;;;;;;;13.05;2.53;;;;;;;;;;6175984;23;20029;-47
2023/07/21 05:04:36;;;;;;;6.43;2.10;;;;;;;;;;6176761;23;20262;-48
2023/07/21 05:07:05;;;;;;;12.95;2.47;;;;;;;;;;6176584;23;20029;-47
2023/07/21 05:09:32;;;;;;;19.85;2.65;;;;;;;;;;6151119;23;20032;-59
2023/07/21 05:12:06;;;;;;;11.55;2.25;;;;;;;;;;6176846;23;20284;-48
2023/07/21 05:14:34;;;;;;;12.38;2.45;;;;;;;;;;6176400;23;20091;-48
2023/07/21 05:17:07;;;;;;;17.00;2.65;;;;;;;;;;6177910;23;20025;-52
2023/07/21 05:19:34;;;;;;;13.93;2.22;;;;;;;;;;6177105;23;20539;-51
2023/07/21 05:22:02;;;;;;;12.07;2.40;;;;;;;;;;6176717;23;20033;-50
2023/07/21 05:24:36;;;;;;;11.57;2.10;;;;;;;;;;6151984;23;20350;-50
2023/07/21 05:27:03;;;;;;;11.07;2.05;;;;;;;;;;6177640;23;20025;-62
2023/07/21 05:29:33;;;;;;;9.55;2.05;;;;;;;;;;6176485;23;20025;-62
2023/07/21 05:32:06;;;;;;;14.20;2.55;;;;;;;;;;6176505;23;20283;-62
2023/07/21 05:34:33;;;;;;;15.13;2.58;;;;;;;;;;6176497;23;20029;-62
2023/07/21 05:37:07;;;;;;;10.65;2.15;;;;;;;;;;6177401;23;20025;-59
2023/07/21 05:39:35;;;;;;;13.82;2.65;;;;;;;;;;6175917;23;20025;-58
2023/07/21 05:42:03;;;;;;;9.93;2.38;;;;;;;;;;6175679;23;20079;-58
2023/07/21 05:44:37;;;;;;;5.60;1.83;;;;;;;;;;6174430;23;20079;-59
2023/07/21 05:47:05;;;;;;;12.35;2.47;;;;;;;;;;6175071;23;20048;-59
2023/07/21 05:49:39;;;;;;;8.23;2.13;;;;;;;;;;6170884;23;20095;-59
2023/07/21 05:52:06;;;;;;;10.55;2.20;;;;;;;;;;6173476;23;20025;-59
2023/07/21 05:54:34;;;;;;;8.50;2.28;;;;;;;;;;6173998;23;20013;-60
2023/07/21 05:57:07;;;;;;;10.38;2.05;;;;;;;;;;6176795;23;20036;-60
2023/07/21 05:59:34;;;;;;;9.68;2.15;;;;;;;;;;6175742;23;20025;-60
2023/07/21 06:02:08;;;;;;;9.93;2.00;;;;;;;;;;6174549;23;20048;-60
2023/07/21 06:04:36;;;;;;;9.45;2.42;;;;;;;;;;6173913;23;20034;-54
2023/07/21 06:07:03;;;;;;;9.27;2.50;;;;;;;;;;6176640;23;20031;-58
2023/07/21 06:09:38;;;;;;;9.05;1.92;;;;;;;;;;6175457;23;20444;-53
2023/07/21 06:12:06;;;;;;;9.82;1.85;;;;;;;;;;6176195;23;20021;-53
2023/07/21 06:14:40;;;;;;;8.88;1.90;;;;;;;;;;6176490;23;20029;-54
2023/07/21 06:17:08;;;;;;;10.15;2.42;;;;;;;;;;6177139;23;20028;-53
2023/07/21 06:19:35;;;;;;;8.48;2.08;;;;;;;;;;6176267;23;20049;-54
2023/07/21 06:22:16;;;;;;;10.00;2.03;;;;;;;;;;6175887;23;20775;-55
2023/07/21 06:24:44;;;;;;;12.45;1.90;;;;;;;;;;6176842;23;20087;-58
2023/07/21 06:27:18;;;;;;;7.18;1.75;;;;;;;;;;6175443;23;20029;-58
2023/07/21 06:29:45;;;;;;;12.93;2.00;;;;;;;;;;6174473;23;20025;-58
2023/07/21 06:32:13;;;;;;;8.02;2.20;;;;;;;;;;6174111;23;20024;-59
2023/07/21 06:34:47;;;;;;;11.98;2.03;;;;;;;;;;6174984;23;20091;-61
2023/07/21 06:37:14;;;;;;;12.07;1.85;;;;;;;;;;6175428;23;20369;-53
2023/07/21 06:39:41;;;;;;;8.15;2.28;;;;;;;;;;6174321;23;20044;-55
2023/07/21 06:42:15;;;;;;;8.65;1.80;;;;;;;;;;6174691;23;20083;-53
2023/07/21 06:44:42;;;;;;;9.30;1.98;;;;;;;;;;6175882;23;20021;-51
2023/07/21 06:47:17;;;;;;;5.65;1.75;;;;;;;;;;6175727;23;20021;-55
2023/07/21 06:49:44;;;;;;;;;;;;;;;;;;6176063;23;20032;-54
2023/07/21 06:52:11;;;;;;;11.70;2.28;;;;;;;;;;6175897;23;20224;-53
2023/07/21 06:54:45;;;;;;;9.25;2.42;;;;;;;;;;6173650;23;20016;-52
2023/07/21 06:57:12;;;;;;;10.02;2.20;;;;;;;;;;6174189;23;20025;-51
2023/07/21 06:59:39;;;;;;;11.40;1.67;;;;;;;;;;6174371;23;20075;-54
2023/07/21 07:02:13;;;;;;;6.05;1.65;;;;;;;;;;6174712;23;20025;-59
2023/07/21 07:04:40;;;;;;;5.68;1.63;;;;;;;;;;6174809;23;20032;-60
2023/07/21 07:07:14;;;;;;;8.65;1.88;;;;;;;;;;6174216;23;20062;-61
2023/07/21 07:09:42;;;;;;;11.10;1.90;;;;;;;;;;6174850;23;20026;-60
2023/07/21 07:12:09;;;;;;;;;;;;;;;;;;6176565;23;20419;-61
2023/07/21 07:14:46;;;;;;;7.72;1.77;;;;;;;;;;6175183;23;19983;-60
2023/07/21 07:17:13;;;;;;;7.50;1.92;;;;;;;;;;6177173;23;20087;-60
2023/07/21 07:19:47;;;;;;;9.82;1.48;;;;;;;;;;6179684;23;20036;-57
2023/07/21 07:22:21;;;;;;;9.98;2.40;;;;;;;;;;6176073;23;20095;-57
2023/07/21 07:24:56;;;;;;;8.00;1.55;;;;;;;;;;6176145;23;20036;-58
2023/07/21 07:27:23;;;;;;;9.95;1.80;;;;;;;;;;6176776;23;20064;-58
2023/07/21 07:29:50;;;;;;;12.90;2.40;;;;;;;;;;6174891;23;20068;-61
2023/07/21 07:32:24;;;;;;;9.50;1.92;;;;;;;;;;6177483;23;20025;-58
2023/07/21 07:34:56;;;;;;;7.72;1.75;;;;;;;;;;6176934;23;20479;-50
2023/07/21 07:37:30;;;;;;;7.63;1.63;;;;;;;;;;6177731;23;20021;-51
2023/07/21 07:39:57;;;;;;;7.78;1.70;;;;;;;;;;6176889;23;20084;-48
2023/07/21 07:42:24;;;;;;;6.97;1.30;;;;;;;;;;6178929;23;20021;-51
2023/07/21 07:45:00;;;;;;;9.82;1.65;;;;;;;;;;6177312;23;20515;-47
2023/07/21 07:47:29;;;;;;;11.27;2.33;;;;;;;;;;6178378;23;20032;-53
2023/07/21 07:50:02;;;;;;;7.25;1.42;;;;;;;;;;6178105;23;20092;-51
2023/07/21 07:52:30;;;;;;;5.03;1.23;;;;;;;;;;6177530;23;20025;-48
2023/07/21 07:54:57;;;;;;;6.95;1.95;;;;;;;;;;6175830;23;20099;-50
2023/07/21 07:57:31;;;;;;;6.55;1.85;;;;;;;;;;6178506;23;20075;-47
2023/07/21 07:59:58;;;;;;;7.75;1.80;;;;;;;;;;6176747;23;20091;-50
2023/07/21 08:02:25;;;;;;;8.77;1.85;;;;;;;;;;6176395;23;20041;-57
2023/07/21 08:04:59;;;;;;;12.80;2.45;;;;;;;;;;6178126;23;20255;-57
2023/07/21 08:07:26;;;;;;;9.70;1.77;;;;;;;;;;6178181;23;20491;-58
2023/07/21 08:10:03;;;;;;;8.02;1.98;;;;;;;;;;6176517;23;20080;-58
2023/07/21 08:12:30;;;;;;;12.02;2.03;;;;;;;;;;6150482;23;20021;-58
2023/07/21 08:14:57;;;;;;;7.78;1.88;;;;;;;;;;6177333;23;20076;-58
2023/07/21 08:17:31;;;;;;;11.93;2.22;;;;;;;;;;6151123;23;20083;-59
2023/07/21 08:19:58;;;;;;;;;;;;;;;;;;6176783;23;20108;-59
2023/07/21 08:22:39;;;;;;;7.47;1.88;;;;;;;;;;6144274;23;20332;-59
2023/07/21 08:25:06;;;;;;;8.93;2.10;;;;;;;;;;6147643;23;20084;-59
2023/07/21 08:27:40;;;;;;;4.38;1.30;;;;;;;;;;6146047;23;20084;-50
2023/07/21 08:30:08;;;;;;;7.22;1.88;;;;;;;;;;6145452;23;20033;-61
2023/07/21 08:32:36;;;;;;;7.10;2.20;;;;;;;;;;6147385;23;20025;-62
2023/07/21 08:35:11;;;;;;;12.15;2.22;;;;;;;;;;6147525;23;20021;-61
2023/07/21 08:37:38;;;;;;;;;;;;;;;;;;6147584;23;20096;-61
2023/07/21 08:40:12;;;;;;;6.72;1.83;;;;;;;;;;6147301;23;20331;-61
2023/07/21 08:42:40;;;;;;;12.40;2.10;;;;;;;;;;6146224;23;20025;-61
2023/07/21 08:45:15;;;;;;;10.68;1.70;;;;;;;;;;6147676;23;20022;-61
2023/07/21 08:47:42;;;;;;;7.60;1.98;;;;;;;;;;6146938;23;20029;-62
2023/07/21 08:50:09;;;;;;;12.13;2.00;;;;;;;;;;6147079;23;20025;-61
2023/07/21 08:52:43;;;;;;;7.55;1.70;;;;;;;;;;6147757;23;20036;-61
2023/07/21 08:55:10;;;;;;;8.32;1.67;;;;;;;;;;6146240;23;20029;-58
2023/07/21 08:57:44;;;;;;;8.77;1.73;;;;;;;;;;6146653;23;20032;-62
2023/07/21 09:00:12;;;;;;;5.03;1.65;;;;;;;;;;6145605;23;20085;-62
2023/07/21 09:02:46;;;;;;;7.05;1.67;;;;;;;;;;6147250;23;20025;-62
2023/07/21 09:05:21;;;;;;;9.77;2.03;;;;;;;;;;6146740;23;20580;-63
2023/07/21 09:07:48;;;;;;;7.80;2.10;;;;;;;;;;6146702;23;20026;-62
2023/07/21 09:10:32;;;;;;;5.95;1.52;;;;;;;;;;6147683;23;20392;-63
2023/07/21 09:13:00;;;;;;;9.40;1.88;;;;;;;;;;6146231;23;20073;-62
2023/07/21 09:15:33;;;;;;;7.22;1.88;;;;;;;;;;6146780;23;20029;-58
2023/07/21 09:18:01;;;;;;;10.38;1.90;;;;;;;;;;6146738;23;20025;-58
2023/07/21 09:20:31;;;;;;;10.30;1.95;;;;;;;;;;6150175;23;20021;-58
2023/07/21 09:23:13;;;;;;;8.65;1.95;;;;;;;;;;6174820;23;20048;-58
2023/07/21 09:25:48;;;;;;;9.15;1.80;;;;;;;;;;6177139;23;20024;-59
2023/07/21 09:28:37;;;;;;;8.30;2.13;;;;;;;;;;6175585;23;20024;-58
2023/07/21 09:31:05;;;;;;;10.18;2.20;;;;;;;;;;6174884;23;20021;-58
2023/07/21 09:33:44;;;;;;;7.40;1.83;;;;;;;;;;6175080;23;20397;-58
2023/07/21 09:36:15;;;;;;;6.10;1.80;;;;;;;;;;6175963;23;20549;-58
2023/07/21 09:39:01;;;;;;;6.68;1.80;;;;;;;;;;6175346;23;20025;-58
2023/07/21 09:41:31;;;;;;;5.00;1.73;;;;;;;;;;6175854;23;20395;-58
2023/07/21 09:44:10;;;;;;;3.90;1.60;;;;;;;;;;6175977;23;20690;-59
2023/07/21 09:46:38;;;;;;;6.47;1.90;;;;;;;;;;6176451;23;20424;-58
2023/07/21 09:49:13;;;;;;;9.48;1.65;;;;;;;;;;6173391;23;20031;-59
2023/07/21 09:51:42;;;;;;;10.07;2.13;;;;;;;;;;6175964;23;20024;-59
2023/07/21 09:54:13;;;;;;;8.10;2.08;;;;;;;;;;6169514;23;20436;-56
2023/07/21 09:56:48;;;;;;;6.65;2.08;;;;;;;;;;6175400;23;20488;-61
2023/07/21 09:59:16;;;;;;;8.13;2.05;;;;;;;;;;6174921;23;20443;-61
2023/07/21 10:01:49;;;;;;;7.45;1.65;;;;;;;;;;6174917;23;20025;-62
2023/07/21 10:04:17;;;;;;;7.53;1.98;;;;;;;;;;6176049;23;20029;-61
2023/07/21 10:06:45;;;;;;;6.32;1.98;;;;;;;;;;6175424;23;20032;-61
2023/07/21 10:09:18;;;;;;;8.35;2.10;;;;;;;;;;6174358;23;20496;-61
2023/07/21 10:11:46;;;;;;;3.47;1.40;;;;;;;;;;6176809;23;20025;-58
2023/07/21 10:14:30;;;;;;;7.15;2.00;;;;;;;;;;6175580;23;20028;-58
2023/07/21 10:16:58;;;;;;;7.90;1.92;;;;;;;;;;6175599;23;20416;-57
2023/07/21 10:19:38;;;;;;;5.72;1.80;;;;;;;;;;6175545;23;20025;-57
2023/07/21 10:22:15;;;;;;;10.15;1.90;;;;;;;;;;6174679;23;20076;-63
2023/07/21 10:24:51;;;;;;;10.50;2.47;;;;;;;;;;6175951;23;20095;-61
2023/07/21 10:27:20;;;;;;;6.18;1.88;;;;;;;;;;6177259;23;20048;-62
2023/07/21 10:29:50;;;;;;;7.47;1.90;;;;;;;;;;6174160;23;20455;-61
2023/07/21 10:32:25;;;;;;;10.13;1.95;;;;;;;;;;6174435;23;20040;-61
2023/07/21 10:34:52;;;;;;;4.93;1.67;;;;;;;;;;6174077;23;20024;-61
2023/07/21 10:37:26;;;;;;;9.35;2.10;;;;;;;;;;6176066;23;20377;-61
2023/07/21 10:39:54;;;;;;;5.00;1.70;;;;;;;;;;6175347;23;20017;-58
2023/07/21 10:42:21;;;;;;;7.45;2.10;;;;;;;;;;6176128;23;20024;-58
2023/07/21 10:44:55;;;;;;;9.10;2.05;;;;;;;;;;6174387;23;20563;-58
2023/07/21 10:47:23;;;;;;;6.85;2.00;;;;;;;;;;6174969;23;20399;-58
2023/07/21 10:49:57;;;;;;;7.75;1.70;;;;;;;;;;6175861;23;20052;-58
2023/07/21 10:52:24;;;;;;;4.60;1.35;;;;;;;;;;6148449;23;20025;-57
2023/07/21 10:54:56;;;;;;;8.13;1.88;;;;;;;;;;6174271;23;20025;-55
2023/07/21 10:57:34;;;;;;;7.00;1.85;;;;;;;;;;6151131;23;20103;-56
2023/07/21 11:00:01;;;;;;;7.22;1.88;;;;;;;;;;6173514;23;20230;-54
2023/07/21 11:02:38;;;;;;;8.70;1.67;;;;;;;;;;6175049;23;20029;-53
2023/07/21 11:05:06;;;;;;;7.93;1.88;;;;;;;;;;6175261;23;20039;-53
2023/07/21 11:07:33;;;;;;;8.90;1.90;;;;;;;;;;6177164;23;20025;-59
2023/07/21 11:10:08;;;;;;;10.27;2.17;;;;;;;;;;6174886;23;20095;-59
2023/07/21 11:12:35;;;;;;;9.07;1.98;;;;;;;;;;6173997;23;20029;-59
2023/07/21 11:15:03;;;;;;;6.45;1.60;;;;;;;;;;6175260;23;20095;-59
2023/07/21 11:17:38;;;;;;;7.85;1.80;;;;;;;;;;6174623;23;20021;-55
2023/07/21 11:20:08;;;;;;;6.05;1.60;;;;;;;;;;6174247;23;20098;-55
2023/07/21 11:22:55;;;;;;;7.30;1.75;;;;;;;;;;6175141;23;20048;-63
2023/07/21 11:25:22;;;;;;;8.70;1.90;;;;;;;;;;6174719;23;20025;-64
2023/07/21 11:28:05;;;;;;;5.43;1.85;;;;;;;;;;6175816;23;20084;-62
2023/07/21 11:30:33;;;;;;;8.10;1.67;;;;;;;;;;6174967;23;20484;-63
2023/07/21 11:33:14;;;;;;;5.88;1.60;;;;;;;;;;6176631;23;20596;-63
2023/07/21 11:35:48;;;;;;;3.58;1.25;;;;;;;;;;6174717;23;20029;-58
2023/07/21 11:38:21;;;;;;;3.63;1.25;;;;;;;;;;6173647;23;20566;-57
2023/07/21 11:40:55;;;;;;;4.50;1.45;;;;;;;;;;6176318;23;20088;-58
2023/07/21 11:43:22;;;;;;;3.50;1.02;;;;;;;;;;6174738;23;20064;-58
2023/07/21 11:45:57;;;;;;;3.35;1.30;;;;;;;;;;6175050;23;20021;-58
2023/07/21 11:48:25;;;;;;;4.95;1.50;;;;;;;;;;6175678;23;20017;-59
2023/07/21 11:50:54;;;;;;;7.07;1.55;;;;;;;;;;6173942;23;20025;-49
2023/07/21 11:53:43;;;;;;;5.13;1.38;;;;;;;;;;6175459;23;20148;-50
2023/07/21 11:56:11;;;;;;;5.70;1.20;;;;;;;;;;6175365;23;20552;-51
2023/07/21 11:58:45;;;;;;;6.80;1.67;;;;;;;;;;6174451;23;20021;-49
2023/07/21 12:01:12;;;;;;;6.65;1.60;;;;;;;;;;6174808;23;20374;-50
2023/07/21 12:03:48;;;;;;;7.88;1.73;;;;;;;;;;6152168;23;20488;-52
2023/07/21 12:06:15;;;;;;;4.13;1.20;;;;;;;;;;6177621;23;20027;-63
2023/07/21 12:08:43;;;;;;;6.80;1.67;;;;;;;;;;6175100;23;20051;-63
2023/07/21 12:11:17;;;;;;;7.80;1.77;;;;;;;;;;6178187;23;20032;-63
2023/07/21 12:13:45;;;;;;;6.68;1.38;;;;;;;;;;6177821;23;20405;-63
2023/07/21 12:16:18;;;;;;;5.40;1.38;;;;;;;;;;6176917;23;20021;-48
2023/07/21 12:18:46;;;;;;;6.82;1.80;;;;;;;;;;6177452;23;20080;-58
2023/07/21 12:21:26;;;;;;;5.15;1.30;;;;;;;;;;6176749;23;20029;-58
2023/07/21 12:24:12;;;;;;;7.57;1.80;;;;;;;;;;6176583;23;20100;-58
2023/07/21 12:26:40;;;;;;;8.13;1.52;;;;;;;;;;6178012;23;20027;-58
2023/07/21 12:29:14;;;;;;;3.92;1.23;;;;;;;;;;6176778;23;20467;-58
2023/07/21 12:31:59;;;;;;;5.72;2.08;;;;;;;;;;6177329;23;20035;-57
2023/07/21 12:34:34;;;;;;;3.38;1.00;;;;;;;;;;6177920;23;20096;-59
2023/07/21 12:37:02;;;;;;;3.97;1.60;;;;;;;;;;6175949;23;20381;-59
2023/07/21 12:39:29;;;;;;;10.13;1.58;;;;;;;;;;6176165;23;20442;-64
2023/07/21 12:42:02;;;;;;;7.60;1.98;;;;;;;;;;6175912;23;20029;-63
2023/07/21 12:44:30;;;;;;;4.22;1.48;;;;;;;;;;6175763;23;20021;-63
2023/07/21 12:46:57;;;;;;;4.10;1.20;;;;;;;;;;6176913;23;20036;-60
2023/07/21 12:49:32;;;;;;;7.25;2.13;;;;;;;;;;6165622;23;20624;-61
2023/07/21 12:52:05;;;;;;;10.50;1.95;;;;;;;;;;6175399;23;20032;-60
2023/07/21 12:54:38;;;;;;;5.28;1.60;;;;;;;;;;6169231;23;20021;-60
2023/07/21 12:57:06;;;;;;;3.42;1.27;;;;;;;;;;6175758;23;20018;-61
2023/07/21 12:59:33;;;;;;;5.13;1.48;;;;;;;;;;6162552;23;20032;-61
2023/07/21 13:02:07;;;;;;;5.97;1.38;;;;;;;;;;6177074;23;20029;-59
2023/07/21 13:04:35;;;;;;;2.45;1.13;;;;;;;;;;6175678;23;20029;-59
2023/07/21 13:07:09;;;;;;;6.10;1.58;;;;;;;;;;6174552;23;20025;-59
2023/07/21 13:09:42;;;;;;;5.70;1.20;;;;;;;;;;6175408;23;20024;-59
2023/07/21 13:12:10;;;;;;;3.95;1.35;;;;;;;;;;6176660;23;20067;-59
2023/07/21 13:14:37;;;;;;;3.42;1.52;;;;;;;;;;6171932;23;20091;-59
2023/07/21 13:17:11;;;;;;;7.00;1.65;;;;;;;;;;6176674;23;20063;-59
2023/07/21 13:19:38;;;;;;;4.28;1.45;;;;;;;;;;6172988;23;20121;-64
2023/07/21 13:22:06;;;;;;;5.50;1.35;;;;;;;;;;6176199;23;20025;-54
2023/07/21 13:24:46;;;;;;;10.00;1.52;;;;;;;;;;6174356;23;20116;-59
2023/07/21 13:27:13;;;;;;;6.07;1.63;;;;;;;;;;6176831;23;20032;-58
2023/07/21 13:29:47;;;;;;;3.95;1.45;;;;;;;;;;6173322;23;20029;-59
2023/07/21 13:32:15;;;;;;;6.97;1.63;;;;;;;;;;6177049;23;20100;-59
2023/07/21 13:34:42;;;;;;;3.88;1.20;;;;;;;;;;6174699;23;20028;-59
2023/07/21 13:37:16;;;;;;;7.13;1.50;;;;;;;;;;6176076;23;20084;-59
2023/07/21 13:39:43;;;;;;;11.65;1.95;;;;;;;;;;6175824;23;20427;-63
2023/07/21 13:42:18;;;;;;;5.40;1.40;;;;;;;;;;6173248;23;20036;-64
2023/07/21 13:44:45;;;;;;;;;;;;;;;;;;6173264;23;20555;-63
2023/07/21 13:47:12;;;;;;;4.00;1.08;;;;;;;;;;6176064;23;20423;-64
2023/07/21 13:49:45;;;;;;;4.22;1.48;;;;;;;;;;6174324;23;20091;-61
2023/07/21 13:52:13;;;;;;;4.40;1.15;;;;;;;;;;6174733;23;20024;-59
2023/07/21 13:54:40;;;;;;;7.85;1.25;;;;;;;;;;6171699;23;20029;-59
2023/07/21 13:57:13;;;;;;;5.55;1.55;;;;;;;;;;6172558;23;20354;-58
2023/07/21 13:59:40;;;;;;;3.85;1.65;;;;;;;;;;6173372;23;20028;-59
2023/07/21 14:02:14;;;;;;;4.20;1.40;;;;;;;;;;6172162;23;20041;-59
2023/07/21 14:04:42;;;;;;;7.45;1.65;;;;;;;;;;6171781;23;20028;-59
2023/07/21 14:07:09;;;;;;;4.15;1.30;;;;;;;;;;6173438;23;20575;-60
2023/07/21 14:09:45;;;;;;;5.28;1.38;;;;;;;;;;6173401;23;20075;-60
2023/07/21 14:12:12;;;;;;;3.53;1.45;;;;;;;;;;6174697;23;20033;-62
2023/07/21 14:14:39;;;;;;;4.50;1.20;;;;;;;;;;6171684;23;20025;-60
2023/07/21 14:17:13;;;;;;;7.15;1.10;;;;;;;;;;6171682;23;20421;-62
2023/07/21 14:19:40;;;;;;;4.53;1.35;;;;;;;;;;6171522;23;20021;-48
2023/07/21 14:22:21;;;;;;;11.80;2.03;;;;;;;;;;6174125;23;20080;-48
2023/07/21 14:24:55;;;;;;;1.73;1.00;;;;;;;;;;6172399;23;20071;-50
2023/07/21 14:27:29;;;;;;;6.03;1.27;;;;;;;;;;6170955;23;20017;-54
2023/07/21 14:29:56;;;;;;;;;;;;;;;;;;6173831;23;20036;-53
2023/07/21 14:32:23;;;;;;;3.25;0.93;;;;;;;;;;6148617;23;19923;-54
2023/07/21 14:34:58;;;;;;;2.38;1.00;;;;;;;;;;6174167;23;20017;-62
2023/07/21 14:37:25;;;;;;;6.47;1.10;;;;;;;;;;6176208;23;20066;-62
2023/07/21 14:39:58;;;;;;;4.57;1.27;;;;;;;;;;6174135;23;20376;-63
2023/07/21 14:42:25;;;;;;;8.27;1.15;;;;;;;;;;6173496;23;20484;-62
2023/07/21 14:44:53;;;;;;;3.88;1.00;;;;;;;;;;6174735;23;20045;-59
2023/07/21 14:47:26;;;;;;;4.30;1.02;;;;;;;;;;6170839;23;20027;-55
2023/07/21 14:49:53;;;;;;;4.78;1.33;;;;;;;;;;6175864;23;20031;-61
2023/07/21 14:52:28;;;;;;;7.18;1.48;;;;;;;;;;6172313;23;20024;-61
2023/07/21 14:54:57;;;;;;;5.55;1.40;;;;;;;;;;6174851;23;20032;-61
2023/07/21 14:57:25;;;;;;;5.57;1.10;;;;;;;;;;6176485;23;20480;-60
2023/07/21 14:59:59;;;;;;;5.03;0.93;;;;;;;;;;6175391;23;20044;-61
2023/07/21 15:02:26;;;;;;;5.82;1.20;;;;;;;;;;6174900;23;20021;-61
2023/07/21 15:05:00;;;;;;;4.05;1.13;;;;;;;;;;6176172;23;20028;-61